createdAt,value
2018-11-21T00:41:32.336Z,-21001.61
2018-11-21T00:44:00.690Z,-20999.60
2018-11-21T00:46:29.008Z,-20993.17
2018-11-21T00:48:57.282Z,-20999.32
2018-11-21T00:51:23.791Z,-21003.32
2018-11-21T00:53:52.127Z,-20999.75
2018-11-21T00:56:20.542Z,-20997.46
2018-11-21T00:58:49.011Z,-20989.88
2018-11-21T01:01:17.331Z,-20990.02
2018-11-21T01:03:46.135Z,-20992.74
2018-11-21T01:06:14.465Z,-20989.02
2018-11-21T01:08:42.785Z,-20995.17
2018-11-21T01:11:11.204Z,-20996.75
2018-11-21T01:13:39.520Z,-20994.74
2018-11-21T01:16:07.909Z,-20995.03
2018-11-21T01:18:36.291Z,-20989.31
2018-11-21T01:21:04.835Z,-20991.31
2018-11-21T01:23:33.219Z,-20986.59
2018-11-21T01:26:01.503Z,-20982.44
2018-11-21T01:28:29.929Z,-20990.30
2018-11-21T01:30:58.238Z,-20985.87
2018-11-21T01:33:26.581Z,-20984.73
2018-11-21T01:35:54.860Z,-20982.16
2018-11-21T01:38:23.237Z,-20987.02
2018-11-21T01:40:52.859Z,-20986.73
2018-11-21T01:43:19.846Z,-20985.45
2018-11-21T01:45:48.143Z,-20982.44
2018-11-21T01:48:16.510Z,-20982.44
2018-11-21T01:50:44.794Z,-20980.58
2018-11-21T01:53:13.279Z,-20988.16
2018-11-21T01:55:41.589Z,-20979.15
2018-11-21T01:58:09.960Z,-20986.73
2018-11-21T02:00:38.161Z,-20986.30
2018-11-21T02:03:06.468Z,-20983.44
2018-11-21T02:05:34.760Z,-20987.45
2018-11-21T02:08:03.027Z,-20982.73
2018-11-21T02:10:31.324Z,-20987.88
2018-11-21T02:12:59.576Z,-20977.86
2018-11-21T02:15:27.874Z,-20979.58
2018-11-21T02:17:56.131Z,-20982.01
2018-11-21T02:20:24.441Z,-20978.29
2018-11-21T02:22:52.685Z,-20979.72
2018-11-21T02:25:21.019Z,-20984.44
2018-11-21T02:27:49.386Z,-20972.57
2018-11-21T02:30:17.705Z,-20979.29
2018-11-21T02:32:46.045Z,-20985.16
2018-11-21T02:41:45.483Z,-20972.00
2018-11-21T02:44:13.886Z,-20965.27
2018-11-21T02:46:42.130Z,-20963.83
2018-11-21T02:49:10.416Z,-20974.14
2018-11-21T02:51:38.974Z,-20969.56
2018-11-21T02:54:07.279Z,-20968.41
2018-11-21T03:07:04.426Z,-20962.69
2018-11-21T03:09:32.832Z,-20953.09
2018-11-21T03:12:01.258Z,-20953.24
2018-11-21T03:14:29.498Z,-20956.39
2018-11-21T03:16:57.791Z,-20959.25
2018-11-21T03:19:26.212Z,-20956.24
2018-11-21T03:21:54.522Z,-20954.53
2018-11-21T03:24:22.808Z,-20951.09
2018-11-21T03:26:51.787Z,-20950.80
2018-11-21T03:29:20.358Z,-20949.51
2018-11-21T03:31:48.657Z,-20949.23
2018-11-21T03:34:16.965Z,-20955.53
2018-11-21T03:39:34.851Z,-20959.82
2018-11-21T03:42:03.129Z,-20963.83
2018-11-21T03:44:31.467Z,-20965.70
2018-11-21T03:46:59.799Z,-20963.83
2018-11-21T03:49:28.102Z,-20956.24
2018-11-21T03:51:56.451Z,-20970.42
2018-11-21T03:54:24.749Z,-20966.41
2018-11-21T03:56:53.005Z,-20961.55
2018-11-21T03:59:21.329Z,-20971.56
2018-11-21T04:01:49.606Z,-20967.98
2018-11-21T04:04:17.870Z,-20968.27
2018-11-21T04:06:46.224Z,-20971.56
2018-11-21T04:09:14.485Z,-20965.84
2018-11-21T04:11:42.893Z,-20959.82
2018-11-21T04:14:11.068Z,-20965.98
2018-11-21T04:16:39.396Z,-20965.27
2018-11-21T04:19:07.802Z,-20969.99
2018-11-21T04:21:36.074Z,-20965.27
2018-11-21T04:24:04.355Z,-20963.55
2018-11-21T04:26:32.675Z,-20959.54
2018-11-21T04:29:00.971Z,-20959.54
2018-11-21T04:31:29.310Z,-20957.25
2018-11-21T04:33:57.608Z,-20967.27
2018-11-21T04:36:25.921Z,-20967.27
2018-11-21T04:38:54.200Z,-20962.26
2018-11-21T04:41:22.506Z,-20961.83
2018-11-21T04:43:50.765Z,-20961.98
2018-11-21T04:46:19.091Z,-20964.84
2018-11-21T04:48:47.304Z,-20956.67
2018-11-21T04:51:15.570Z,-20963.12
2018-11-21T04:53:43.842Z,-20968.70
2018-11-21T04:56:12.131Z,-20965.55
2018-11-21T04:58:40.391Z,-20964.55
2018-11-21T05:01:08.670Z,-20963.55
2018-11-21T05:03:36.934Z,-20959.68
2018-11-21T05:06:05.402Z,-20960.68
2018-11-21T05:08:33.663Z,-20958.68
2018-11-21T05:11:01.907Z,-20954.38
2018-11-21T05:13:30.287Z,-20952.38
2018-11-21T05:15:58.585Z,-20936.62
2018-11-21T05:18:26.880Z,-20941.77
2018-11-21T05:20:56.004Z,-20940.78
2018-11-21T05:23:24.299Z,-20945.93
2018-11-21T05:25:52.525Z,-20954.67
2018-11-21T05:28:20.772Z,-20953.66
2018-11-21T05:30:49.048Z,-20956.53
2018-11-21T05:33:17.317Z,-20957.39
2018-11-21T05:38:31.768Z,-20959.11
2018-11-21T05:41:00.114Z,-20957.25
2018-11-21T05:43:28.418Z,-20961.55
2018-11-21T05:45:56.710Z,-20963.12
2018-11-21T05:48:25.049Z,-20964.70
2018-11-21T05:50:53.314Z,-20965.13
2018-11-21T05:53:21.607Z,-20957.68
2018-11-21T05:55:49.919Z,-20954.96
2018-11-21T05:58:18.245Z,-20961.83
2018-11-21T06:00:49.253Z,-20960.82
2018-11-21T06:03:14.777Z,-20964.41
2018-11-21T06:05:43.030Z,-20965.98
2018-11-21T06:08:11.300Z,-20958.54
2018-11-21T06:10:39.582Z,-20959.97
2018-11-21T06:13:07.852Z,-20962.55
2018-11-21T06:15:36.234Z,-20964.41
2018-11-21T06:18:04.873Z,-20971.85
2018-11-21T06:20:33.207Z,-20976.86
2018-11-21T06:23:01.472Z,-20974.86
2018-11-21T06:25:29.829Z,-20974.86
2018-11-21T06:27:58.097Z,-20980.15
2018-11-21T06:30:26.361Z,-20974.43
2018-11-21T06:32:54.672Z,-20977.43
2018-11-21T06:35:22.924Z,-20972.86
2018-11-21T06:37:51.289Z,-20980.58
2018-11-21T06:40:19.544Z,-20982.44
2018-11-21T06:49:07.749Z,-20985.73
2018-11-21T06:51:36.096Z,-20990.73
2018-11-21T06:54:04.740Z,-20990.59
2018-11-21T06:56:33.996Z,-20991.60
2018-11-21T06:59:02.380Z,-20993.46
2018-11-21T07:01:30.862Z,-20992.46
2018-11-21T07:03:59.266Z,-20991.02
2018-11-21T07:06:27.570Z,-20990.73
2018-11-21T07:08:55.820Z,-20993.03
2018-11-21T07:11:24.163Z,-20987.88
2018-11-21T07:13:52.617Z,-20993.88
2018-11-21T07:16:20.949Z,-20990.45
2018-11-21T07:18:49.278Z,-20996.46
2018-11-21T07:21:17.839Z,-20996.03
2018-11-21T07:23:46.315Z,-20991.60
2018-11-21T07:26:14.667Z,-20991.60
2018-11-21T07:28:42.991Z,-20996.32
2018-11-21T07:31:11.314Z,-20993.88
2018-11-21T07:33:39.621Z,-20996.89
2018-11-21T07:36:07.880Z,-21001.75
2018-11-21T07:38:36.170Z,-21000.32
2018-11-21T07:41:04.484Z,-21000.32
2018-11-21T07:43:32.743Z,-20997.75
2018-11-21T07:46:01.014Z,-20991.31
2018-11-21T07:48:30.847Z,-20992.17
2018-11-21T07:51:02.283Z,-20992.03
2018-11-21T07:53:27.436Z,-21001.32
2018-11-21T07:55:55.867Z,-20996.46
2018-11-21T07:58:25.543Z,-20996.17
2018-11-21T08:11:11.601Z,-20992.03
2018-11-21T08:24:01.504Z,-20993.88
2018-11-21T08:26:48.948Z,-21003.61
2018-11-21T08:29:17.228Z,-21004.75
2018-11-21T08:31:45.548Z,-21010.61
2018-11-21T08:34:13.858Z,-21012.04
2018-11-21T08:36:42.213Z,-21007.90
2018-11-21T08:39:10.857Z,-21014.33
2018-11-21T08:41:39.171Z,-21007.90
2018-11-21T08:44:07.805Z,-21009.89
2018-11-21T08:46:36.155Z,-20995.74
2018-11-21T08:49:04.611Z,-21001.61
2018-11-21T08:51:32.917Z,-21013.76
2018-11-21T08:54:01.406Z,-21003.32
2018-11-21T08:56:29.793Z,-21007.32
2018-11-21T08:58:58.052Z,-21011.04
2018-11-21T09:01:26.304Z,-21010.61
2018-11-21T09:03:54.606Z,-21015.62
2018-11-21T09:06:22.925Z,-21013.33
2018-11-21T09:08:51.208Z,-21010.61
2018-11-21T09:11:19.555Z,-21012.61
2018-11-21T09:13:47.788Z,-21008.47
2018-11-21T09:16:16.108Z,-21012.76
2018-11-21T09:18:44.414Z,-21014.47
2018-11-21T09:21:12.720Z,-21010.47
2018-11-21T09:23:41.111Z,-21016.77
2018-11-21T09:26:09.349Z,-21014.47
2018-11-21T09:28:37.656Z,-21020.34
2018-11-21T09:31:05.961Z,-21025.76
2018-11-21T09:33:34.246Z,-21025.62
2018-11-21T09:36:02.600Z,-21027.05
2018-11-21T09:38:30.936Z,-21031.19
2018-11-21T09:40:59.178Z,-21032.48
2018-11-21T09:43:27.457Z,-21030.48
2018-11-21T09:45:55.750Z,-21020.91
2018-11-21T09:48:24.073Z,-21036.48
2018-11-21T09:50:53.598Z,-21032.34
2018-11-21T09:53:21.940Z,-21031.91
2018-11-21T09:55:50.191Z,-21026.76
2018-11-21T09:58:18.460Z,-21040.05
2018-11-21T10:01:22.948Z,-21037.05
2018-11-21T10:03:51.198Z,-21031.05
2018-11-21T10:06:24.517Z,-21037.62
2018-11-21T10:09:00.383Z,-21040.05
2018-11-21T10:11:29.320Z,-21038.05
2018-11-21T10:13:57.593Z,-21033.91
2018-11-21T10:16:25.864Z,-21039.33
2018-11-21T10:18:55.674Z,-21020.19
2018-11-21T10:21:28.327Z,-21035.62
2018-11-21T10:23:56.690Z,-21030.48
2018-11-21T10:26:24.987Z,-21035.91
2018-11-21T10:28:53.889Z,-21043.75
2018-11-21T10:31:22.176Z,-21032.48
2018-11-21T10:33:50.527Z,-21042.19
2018-11-21T10:36:18.899Z,-21035.48
2018-11-21T10:38:47.198Z,-21040.90
2018-11-21T10:41:15.570Z,-21043.33
2018-11-21T10:43:43.869Z,-21044.75
2018-11-21T10:46:12.162Z,-21046.75
2018-11-21T10:48:40.423Z,-21048.32
2018-11-21T10:51:08.988Z,-21049.46
2018-11-21T10:53:37.317Z,-21025.19
2018-11-21T10:56:06.249Z,-21035.34
2018-11-21T10:58:34.515Z,-21043.04
2018-11-21T11:01:20.506Z,-21037.48
2018-11-21T11:04:03.333Z,-21050.18
2018-11-21T11:06:50.981Z,-21051.32
2018-11-21T11:09:38.373Z,-21039.47
2018-11-21T11:12:24.174Z,-21036.91
2018-11-21T11:15:17.210Z,-21051.46
2018-11-21T11:17:59.618Z,-21052.46
2018-11-21T11:20:59.409Z,-21054.89
2018-11-21T11:23:49.395Z,-21048.46
2018-11-21T11:26:54.819Z,-21056.46
2018-11-21T11:29:51.070Z,-21059.31
2018-11-21T11:32:30.219Z,-21056.17
2018-11-21T11:35:15.859Z,-21055.17
2018-11-21T11:38:09.221Z,-21051.46
2018-11-21T11:40:59.905Z,-21053.18
2018-11-21T11:43:56.111Z,-21066.87
2018-11-21T11:46:49.283Z,-21073.00
2018-11-21T11:49:36.401Z,-21068.87
2018-11-21T11:52:23.492Z,-21064.73
2018-11-21T11:55:13.989Z,-21068.16
2018-11-21T11:58:01.354Z,-21063.59
2018-11-21T12:00:52.954Z,-21056.17
2018-11-21T12:03:41.844Z,-21068.30
2018-11-21T12:06:18.416Z,-21064.16
2018-11-21T12:09:20.921Z,-21069.01
2018-11-21T12:12:08.320Z,-21073.57
2018-11-21T12:14:58.139Z,-21072.00
2018-11-21T12:17:52.104Z,-21067.30
2018-11-21T12:20:38.142Z,-21079.42
2018-11-21T12:23:24.305Z,-21079.14
2018-11-21T12:26:20.639Z,-21077.85
2018-11-21T12:29:13.739Z,-21077.85
2018-11-21T12:31:59.786Z,-21088.69
2018-11-21T12:34:50.105Z,-21071.44
2018-11-21T12:37:55.327Z,-21080.84
2018-11-21T12:40:45.467Z,-21081.70
2018-11-21T12:43:26.796Z,-21085.41
2018-11-21T12:46:14.068Z,-21088.83
2018-11-21T12:48:59.594Z,-21082.84
2018-11-21T12:51:40.134Z,-21073.14
2018-11-21T12:54:21.720Z,-21080.70
2018-11-21T12:57:13.697Z,-21075.57
2018-11-21T12:59:55.052Z,-21077.00
2018-11-21T13:02:37.859Z,-21077.00
2018-11-21T13:05:25.811Z,-21078.43
2018-11-21T13:08:15.692Z,-21057.89
2018-11-21T13:11:01.418Z,-21075.14
2018-11-21T13:13:53.515Z,-21068.73
2018-11-21T13:16:53.048Z,-21072.00
2018-11-21T13:19:52.518Z,-21068.73
2018-11-21T13:22:42.582Z,-21072.43
2018-11-21T13:25:30.052Z,-21072.57
2018-11-21T13:28:32.207Z,-21074.00
2018-11-21T13:31:12.015Z,-21072.29
2018-11-21T13:34:02.055Z,-21071.72
2018-11-21T13:36:58.121Z,-21066.87
2018-11-21T13:39:42.579Z,-21061.45
2018-11-21T13:42:18.438Z,-21070.01
2018-11-21T13:45:23.938Z,-21065.02
2018-11-21T13:48:05.612Z,-21066.87
2018-11-21T13:50:51.711Z,-21070.87
2018-11-21T13:53:39.150Z,-21067.30
2018-11-21T13:56:07.528Z,-21070.44
2018-11-21T13:58:35.823Z,-21066.87
2018-11-21T14:01:04.242Z,-21062.73
2018-11-21T14:03:32.557Z,-21066.02
2018-11-21T14:06:00.874Z,-21067.73
2018-11-21T14:08:29.228Z,-21065.59
2018-11-21T14:10:57.554Z,-21064.45
2018-11-21T14:13:25.862Z,-21068.73
2018-11-21T14:15:54.192Z,-21071.72
2018-11-21T14:18:22.493Z,-21058.03
2018-11-21T14:20:50.832Z,-21061.31
2018-11-21T14:23:19.200Z,-21065.30
2018-11-21T14:25:47.498Z,-21064.88
2018-11-21T14:28:15.826Z,-21056.17
2018-11-21T14:30:44.172Z,-21056.03
2018-11-21T14:33:12.554Z,-21062.59
2018-11-21T14:35:40.808Z,-21066.87
2018-11-21T14:38:09.165Z,-21062.45
2018-11-21T14:40:37.624Z,-21065.02
2018-11-21T14:43:05.992Z,-21056.74
2018-11-21T14:45:37.145Z,-21064.02
2018-11-21T14:48:05.637Z,-21066.73
2018-11-21T14:50:39.164Z,-21053.46
2018-11-21T14:53:03.513Z,-21045.32
2018-11-21T14:55:31.810Z,-21057.03
2018-11-21T14:58:00.066Z,-21060.31
2018-11-21T15:00:28.352Z,-21066.16
2018-11-21T15:02:56.677Z,-21065.16
2018-11-21T15:05:24.940Z,-21059.03
2018-11-21T15:07:53.208Z,-21062.16
2018-11-21T15:10:21.534Z,-21048.04
2018-11-21T15:12:49.847Z,-21055.46
2018-11-21T15:15:19.425Z,-21043.33
2018-11-21T15:17:47.674Z,-21055.17
2018-11-21T15:20:17.532Z,-21052.18
2018-11-21T15:22:45.826Z,-21055.60
2018-11-21T15:25:15.508Z,-21061.31
2018-11-21T15:27:43.910Z,-21053.89
2018-11-21T15:30:14.949Z,-21050.75
2018-11-21T15:32:43.443Z,-21047.89
2018-11-21T15:35:11.736Z,-21061.31
2018-11-21T15:37:41.255Z,-21062.59
2018-11-21T15:40:17.542Z,-21064.59
2018-11-21T15:42:45.930Z,-21057.74
2018-11-21T15:45:15.827Z,-21058.89
2018-11-21T15:47:44.711Z,-21044.33
2018-11-21T15:50:14.679Z,-21030.76
2018-11-21T15:52:43.097Z,-21040.33
2018-11-21T15:55:13.072Z,-21041.05
2018-11-21T15:57:42.631Z,-21038.48
2018-11-21T16:00:19.053Z,-21051.61
2018-11-21T16:02:48.401Z,-21054.89
2018-11-21T16:05:17.263Z,-21057.03
2018-11-21T16:07:45.639Z,-21057.74
2018-11-21T16:10:18.889Z,-21050.61
2018-11-21T16:12:43.544Z,-21046.89
2018-11-21T16:15:17.293Z,-21044.90
2018-11-21T16:17:45.623Z,-21050.61
2018-11-21T16:20:14.997Z,-21049.75
2018-11-21T16:22:43.351Z,-21040.90
2018-11-21T16:25:13.328Z,-21043.33
2018-11-21T16:27:42.476Z,-21049.89
2018-11-21T16:30:18.969Z,-21054.89
2018-11-21T16:32:47.563Z,-21045.32
2018-11-21T16:35:15.920Z,-21039.62
2018-11-21T16:37:44.380Z,-21051.04
2018-11-21T16:40:15.424Z,-21047.32
2018-11-21T16:42:43.835Z,-21048.61
2018-11-21T16:45:13.939Z,-21046.75
2018-11-21T16:47:44.867Z,-21055.89
2018-11-21T16:50:17.162Z,-21053.75
2018-11-21T16:52:45.775Z,-21060.17
2018-11-21T16:55:15.690Z,-21051.61
2018-11-21T16:57:44.601Z,-21054.46
2018-11-21T17:00:15.620Z,-21054.03
2018-11-21T17:02:44.275Z,-21050.89
2018-11-21T17:05:14.006Z,-21053.32
2018-11-21T17:07:42.914Z,-21042.33
2018-11-21T17:10:12.965Z,-21051.61
2018-11-21T17:12:41.710Z,-21046.04
2018-11-21T17:15:12.095Z,-21045.75
2018-11-21T17:17:40.497Z,-21039.62
2018-11-21T17:20:11.502Z,-21042.19
2018-11-21T17:22:40.042Z,-21057.74
2018-11-21T17:25:11.062Z,-21050.61
2018-11-21T17:27:39.443Z,-21061.17
2018-11-21T17:30:09.850Z,-21047.18
2018-11-21T17:32:38.302Z,-21054.60
2018-11-21T17:35:07.397Z,-21054.32
2018-11-21T17:37:35.673Z,-21054.75
2018-11-21T17:40:05.455Z,-21051.89
2018-11-21T17:42:33.757Z,-21045.04
2018-11-21T17:45:02.068Z,-21047.04
2018-11-21T17:47:30.375Z,-21055.46
2018-11-21T17:49:58.773Z,-21046.32
2018-11-21T17:52:27.124Z,-21055.89
2018-11-21T17:54:55.435Z,-21053.89
2018-11-21T17:57:27.947Z,-21054.17
2018-11-21T17:59:52.350Z,-21058.74
2018-11-21T18:02:20.738Z,-21037.33
2018-11-21T18:04:51.175Z,-21046.61
2018-11-21T18:07:19.594Z,-21048.75
2018-11-21T18:09:47.888Z,-21062.45
2018-11-21T18:12:16.197Z,-21058.89
2018-11-21T18:14:44.544Z,-21057.46
2018-11-21T18:17:12.908Z,-21053.89
2018-11-21T18:19:41.206Z,-21042.04
2018-11-21T18:22:09.538Z,-21051.61
2018-11-21T18:24:37.920Z,-21053.89
2018-11-21T18:27:06.505Z,-21041.76
2018-11-21T18:29:34.819Z,-21041.33
2018-11-21T18:32:03.159Z,-21047.75
2018-11-21T18:34:31.471Z,-21054.17
2018-11-21T18:36:59.867Z,-21048.04
2018-11-21T18:39:28.187Z,-21052.89
2018-11-21T18:41:58.088Z,-21060.60
2018-11-21T18:44:24.920Z,-21055.46
2018-11-21T18:46:53.819Z,-21056.03
2018-11-21T18:49:21.592Z,-21050.46
2018-11-21T18:51:49.948Z,-21048.04
2018-11-21T18:54:18.388Z,-21042.47
2018-11-21T18:57:24.816Z,-21038.19
2018-11-21T19:00:12.406Z,-21060.17
2018-11-21T19:02:40.807Z,-21055.89
2018-11-21T19:05:09.165Z,-21050.75
2018-11-21T19:07:37.592Z,-21060.74
2018-11-21T19:10:09.487Z,-21050.75
